YMAV/AVV METAR and TAF weather

Enter ICAO airport designator
Station Type Date Time Source
YMAV METAR 2019/05/20 10:00 UTC NOAA

YMAV 201000Z AUTO 33006KT 9999 // BKN071 15/11 Q1019


Station Type Date Time Source
YMAV Decoded METAR 2019/05/20 10:00 UTC NOAA

Avalon, Avalon Airport, Australia (YMAV) 38-02S 144-29E
May 20, 2019 - 06:00 AM EDT / 2019.05.20 1000 UTC
Wind: from the NNW (330 degrees) at 7 MPH (6 KT):0
Visibility: greater than 7 mile(s):0
Sky conditions: mostly cloudy
Temperature: 59 F (15 C)
Dew Point: 51 F (11 C)
Relative Humidity: 76%
Pressure (altimeter): 30.09 in. Hg (1019 hPa)
ob: YMAV 201000Z AUTO 33006KT 9999 // BKN071 15/11 Q1019
cycle: 10

Station Type Date Time Source
YMAV TAF 2019/05/20 06:33 UTC NOAA

TAF YMAV 200525Z 2006/2106 34014KT 9999 SCT030
FM200900 33010KT 9999 SCT040

Example: see airport list